Vitoria-Gasteiz, Spain
Current Conditions -  °F | °C
As of 12:00 AM on Thursday 18 Dec 2014 (Local Time) from LEVT Reporting Station
Broken Clouds Broken Clouds  
Wind Chill: 48°   Ceiling: 3000
Heat Index: 48°   Visibility: 6mi
Dew Point: 45°   Wind: 3mph
Humidity: 87%   Direction: 240°WSW
Pressure: 30.39"   Gusts: NA
Location:  42.85°N, 2.67°W
Report Text: LEVT 172300Z 24003KT 200V280 9999 SCT015 BKN030 09/07 Q1029
Loading
Personal Weather Stations






























Interactive Weather Map New forecast layout! Learn more

10-Day Weather Forecast

Advertisements
Track Severe Weather on mobile